Time;durP1;ratioP1;P1;durP2;ratioP2;P2;SDS_P1;SDS_P2;PMS_P1;PMS_P2;Temp;Humidity;BMP_temperature;BMP_pressure;BME280_temperature;BME280_humidity;BME280_pressure;Samples;Min_cycle;Max_cycle;Signal;HPM_P1;HPM_P2
2023/05/30 19:43:30;;;;;;;6.32;1.67;;;;;;;;;;5098150;28;20612;-34
2023/05/30 19:45:57;;;;;;;2.17;1.80;;;;;;;;;;5080393;28;20236;-33
2023/05/30 19:48:25;;;;;;;3.03;1.80;;;;;;;;;;5079642;28;20282;-33
2023/05/30 19:50:54;;;;;;;5.25;1.95;;;;;;;;;;5066656;27;20247;-32
2023/05/30 19:53:22;;;;;;;8.07;1.90;;;;;;;;;;5057131;27;20705;-33
2023/05/30 19:55:49;;;;;;;5.53;1.88;;;;;;;;;;5057120;28;20714;-32
2023/05/30 19:58:17;;;;;;;4.55;1.85;;;;;;;;;;5058560;28;20229;-31
2023/05/30 20:00:49;;;;;;;6.53;2.10;;;;;;;;;;5056071;28;20670;-30
2023/05/30 20:03:17;;;;;;;4.72;1.52;;;;;;;;;;5058652;28;20241;-30
2023/05/30 20:05:44;;;;;;;2.28;1.88;;;;;;;;;;5059618;28;20228;-23
2023/05/30 20:08:12;;;;;;;3.95;1.80;;;;;;;;;;5058859;28;20316;-23
2023/05/30 20:10:39;;;;;;;4.32;1.90;;;;;;;;;;5060036;28;20230;-23
2023/05/30 20:13:07;;;;;;;2.92;1.60;;;;;;;;;;5058339;28;20226;-22
2023/05/30 20:15:34;;;;;;;5.60;2.25;;;;;;;;;;5058792;28;20290;-21
2023/05/30 20:18:04;;;;;;;3.25;2.00;;;;;;;;;;5055451;28;20229;-22
2023/05/30 20:20:31;;;;;;;5.57;1.80;;;;;;;;;;5058595;28;20232;-21
2023/05/30 20:22:59;;;;;;;3.55;1.90;;;;;;;;;;5056854;28;20245;-21
2023/05/30 20:25:27;;;;;;;2.60;2.15;;;;;;;;;;5058722;28;20249;-21
2023/05/30 20:27:54;;;;;;;2.00;1.52;;;;;;;;;;5055958;28;20245;-21
2023/05/30 20:30:22;;;;;;;1.92;1.73;;;;;;;;;;5060115;28;20273;-21
2023/05/30 20:32:49;;;;;;;5.25;2.17;;;;;;;;;;5055415;28;20232;-21
2023/05/30 20:35:18;;;;;;;3.50;1.67;;;;;;;;;;5058722;28;20265;-20
2023/05/30 20:37:46;;;;;;;2.67;1.67;;;;;;;;;;5057424;28;21224;-20
2023/05/30 20:40:13;;;;;;;5.45;1.70;;;;;;;;;;5058170;28;20295;-20
2023/05/30 20:42:41;;;;;;;2.22;1.90;;;;;;;;;;5055320;28;20245;-20
2023/05/30 20:45:09;;;;;;;5.53;2.08;;;;;;;;;;5055103;28;20246;-20
2023/05/30 20:47:37;;;;;;;2.40;1.80;;;;;;;;;;5058963;28;20226;-20
2023/05/30 20:50:05;;;;;;;1.60;1.50;;;;;;;;;;5057315;28;20333;-20
2023/05/30 20:52:34;;;;;;;2.50;1.70;;;;;;;;;;5057999;28;20232;-20
2023/05/30 20:55:01;;;;;;;2.70;1.88;;;;;;;;;;5043930;28;20241;-21
2023/05/30 20:57:28;;;;;;;2.72;1.77;;;;;;;;;;5044358;28;20264;-20
2023/05/30 20:59:56;;;;;;;5.15;2.05;;;;;;;;;;5041182;28;20226;-20
2023/05/30 21:02:23;;;;;;;2.08;1.85;;;;;;;;;;5044899;28;20245;-20
2023/05/30 21:04:51;;;;;;;5.28;2.10;;;;;;;;;;5044573;28;20764;-20
2023/05/30 21:07:18;;;;;;;3.25;2.03;;;;;;;;;;5044359;28;20235;-20
2023/05/30 21:09:47;;;;;;;1.80;1.70;;;;;;;;;;5042329;28;20320;-20
2023/05/30 21:12:14;;;;;;;2.63;1.90;;;;;;;;;;5044698;28;20230;-20
2023/05/30 21:14:42;;;;;;;3.08;1.85;;;;;;;;;;5043950;28;20234;-20
2023/05/30 21:17:10;;;;;;;3.78;1.55;;;;;;;;;;5044148;28;20357;-20
2023/05/30 21:19:37;;;;;;;5.90;2.00;;;;;;;;;;5046883;28;20269;-20
2023/05/30 21:22:05;;;;;;;4.70;2.08;;;;;;;;;;5040024;28;20386;-20
2023/05/30 21:24:33;;;;;;;4.80;1.90;;;;;;;;;;5043491;28;20234;-20
2023/05/30 21:27:02;;;;;;;5.75;1.98;;;;;;;;;;5036789;28;20285;-20
2023/05/30 21:29:30;;;;;;;4.20;1.80;;;;;;;;;;5033098;28;20314;-20
2023/05/30 21:31:57;;;;;;;7.13;2.00;;;;;;;;;;5028489;28;20262;-20
2023/05/30 21:34:25;;;;;;;2.63;1.88;;;;;;;;;;5035143;28;20235;-20
2023/05/30 21:36:52;;;;;;;6.43;1.80;;;;;;;;;;5040441;28;20686;-20
2023/05/30 21:39:20;;;;;;;3.00;2.00;;;;;;;;;;5037278;28;20227;-20
2023/05/30 21:41:47;;;;;;;4.97;2.03;;;;;;;;;;5033247;28;20276;-20
2023/05/30 21:44:16;;;;;;;9.43;2.08;;;;;;;;;;5033692;28;20784;-20
2023/05/30 21:46:43;;;;;;;4.90;1.95;;;;;;;;;;5043698;28;20629;-20
2023/05/30 21:49:11;;;;;;;4.50;2.08;;;;;;;;;;5038458;28;20238;-20
2023/05/30 21:51:39;;;;;;;4.40;1.80;;;;;;;;;;5030331;28;20242;-20
2023/05/30 21:54:06;;;;;;;6.90;1.70;;;;;;;;;;5035929;28;20773;-20
2023/05/30 21:56:34;;;;;;;4.50;1.80;;;;;;;;;;5035346;28;20277;-19
2023/05/30 21:59:01;;;;;;;4.10;1.90;;;;;;;;;;5032995;28;20243;-20
2023/05/30 22:01:30;;;;;;;3.20;1.90;;;;;;;;;;5039221;28;20230;-20
2023/05/30 22:03:59;;;;;;;2.10;1.65;;;;;;;;;;5047675;28;20302;-20
2023/05/30 22:06:26;;;;;;;5.57;1.75;;;;;;;;;;5047011;28;20230;-20
2023/05/30 22:08:54;;;;;;;4.75;1.77;;;;;;;;;;5047798;28;20317;-20
2023/05/30 22:11:22;;;;;;;4.05;1.60;;;;;;;;;;5048072;28;20280;-20
2023/05/30 22:13:50;;;;;;;4.82;1.80;;;;;;;;;;5047222;28;20689;-20
2023/05/30 22:16:17;;;;;;;3.35;1.65;;;;;;;;;;5046833;28;20241;-20
2023/05/30 22:18:46;;;;;;;3.42;1.60;;;;;;;;;;5047623;28;20226;-19
2023/05/30 22:21:13;;;;;;;3.65;1.58;;;;;;;;;;5046642;28;20277;-19
2023/05/30 22:23:41;;;;;;;2.28;1.67;;;;;;;;;;5047094;28;20248;-20
2023/05/30 22:26:08;;;;;;;4.25;1.58;;;;;;;;;;5047376;28;20277;-20
2023/05/30 22:28:36;;;;;;;2.75;2.00;;;;;;;;;;5047221;28;20357;-20
2023/05/30 22:31:05;;;;;;;3.58;1.55;;;;;;;;;;5034179;28;20269;-20
2023/05/30 22:33:32;;;;;;;1.67;1.50;;;;;;;;;;5045982;28;20233;-20
2023/05/30 22:36:01;;;;;;;3.28;1.52;;;;;;;;;;5044060;28;20237;-20
2023/05/30 22:38:28;;;;;;;3.25;1.83;;;;;;;;;;5042936;28;21108;-20
2023/05/30 22:40:56;;;;;;;2.92;1.48;;;;;;;;;;5042834;28;20230;-20
2023/05/30 22:43:23;;;;;;;3.17;1.52;;;;;;;;;;5036795;28;20252;-20
2023/05/30 22:45:51;;;;;;;4.05;1.67;;;;;;;;;;5044592;28;20257;-20
2023/05/30 22:48:19;;;;;;;4.18;1.75;;;;;;;;;;5033202;28;20340;-19
2023/05/30 22:50:46;;;;;;;3.33;1.52;;;;;;;;;;5029289;28;20240;-19
2023/05/30 22:53:15;;;;;;;2.22;1.35;;;;;;;;;;5030495;28;20231;-20
2023/05/30 22:55:42;;;;;;;1.85;1.52;;;;;;;;;;5027672;28;20332;-20
2023/05/30 22:58:10;;;;;;;3.58;1.52;;;;;;;;;;5028971;28;20281;-20
2023/05/30 23:00:37;;;;;;;3.15;1.77;;;;;;;;;;5030763;28;20649;-20
2023/05/30 23:03:05;;;;;;;2.00;1.30;;;;;;;;;;5046869;28;20320;-20
2023/05/30 23:05:32;;;;;;;2.75;1.77;;;;;;;;;;5047185;28;20226;-20
2023/05/30 23:08:00;;;;;;;3.63;1.77;;;;;;;;;;5046864;28;20265;-20
2023/05/30 23:10:28;;;;;;;1.63;1.50;;;;;;;;;;5046491;28;20618;-20
2023/05/30 23:12:56;;;;;;;2.10;1.55;;;;;;;;;;5037407;28;21068;-20
2023/05/30 23:15:23;;;;;;;1.80;1.42;;;;;;;;;;5037291;28;20269;-20
2023/05/30 23:17:51;;;;;;;2.95;1.55;;;;;;;;;;5027911;28;20258;-20
2023/05/30 23:20:18;;;;;;;1.70;1.50;;;;;;;;;;5030917;28;20227;-20
2023/05/30 23:22:46;;;;;;;2.58;1.50;;;;;;;;;;5035025;28;20236;-22
2023/05/30 23:25:14;;;;;;;2.22;1.55;;;;;;;;;;5031878;28;20231;-20
2023/05/30 23:27:42;;;;;;;2.08;1.42;;;;;;;;;;5035779;28;20265;-19
2023/05/30 23:30:10;;;;;;;1.88;1.30;;;;;;;;;;5037967;28;20331;-20
2023/05/30 23:32:38;;;;;;;4.82;1.40;;;;;;;;;;5028437;28;20230;-20
2023/05/30 23:35:06;;;;;;;3.50;1.50;;;;;;;;;;5044082;28;20679;-20
2023/05/30 23:37:33;;;;;;;2.90;1.45;;;;;;;;;;5040395;28;20708;-19
2023/05/30 23:40:01;;;;;;;1.90;1.33;;;;;;;;;;5035736;28;20234;-20
2023/05/30 23:42:28;;;;;;;6.03;1.77;;;;;;;;;;5033766;28;20392;-20
2023/05/30 23:44:57;;;;;;;2.10;1.38;;;;;;;;;;5034994;28;20297;-19
2023/05/30 23:47:25;;;;;;;3.72;1.83;;;;;;;;;;5036753;28;20280;-20
2023/05/30 23:49:52;;;;;;;3.92;1.65;;;;;;;;;;5027170;28;20313;-20
2023/05/30 23:52:20;;;;;;;3.75;1.23;;;;;;;;;;5032809;28;20230;-20
2023/05/30 23:54:47;;;;;;;2.10;1.70;;;;;;;;;;5041502;28;20237;-19
2023/05/30 23:57:15;;;;;;;2.50;1.65;;;;;;;;;;5036336;28;20281;-20
2023/05/30 23:59:46;;;;;;;3.85;1.52;;;;;;;;;;5028595;28;20226;-20
